createdAt,value
2022-11-19T00:01:28.024Z,29.90
2022-11-19T00:03:56.020Z,21.92
2022-11-19T00:06:26.440Z,25.90
2022-11-19T00:08:55.170Z,23.33
2022-11-19T00:11:39.512Z,23.58
2022-11-19T00:14:07.920Z,27.05
2022-11-19T00:16:35.693Z,30.23
2022-11-19T00:19:03.241Z,28.08
2022-11-19T00:21:30.690Z,33.33
2022-11-19T00:23:58.722Z,32.90
2022-11-19T00:26:26.260Z,33.20
2022-11-19T00:28:53.929Z,26.75
2022-11-19T00:31:21.663Z,33.90
2022-11-19T00:33:50.683Z,34.03
2022-11-19T00:36:18.767Z,32.53
2022-11-19T00:38:46.276Z,29.63
2022-11-19T00:41:13.791Z,32.05
2022-11-19T00:43:50.633Z,32.47
2022-11-19T00:46:25.941Z,23.33
2022-11-19T00:48:56.132Z,26.35
2022-11-19T00:51:25.309Z,32.15
2022-11-19T00:53:52.980Z,28.55
2022-11-19T00:56:23.136Z,24.00
2022-11-19T00:58:51.576Z,28.08
2022-11-19T01:01:21.362Z,25.45
2022-11-19T01:03:48.930Z,25.65
2022-11-19T01:06:19.541Z,28.33
2022-11-19T01:08:48.393Z,28.40
2022-11-19T01:11:20.319Z,30.08
2022-11-19T01:13:48.391Z,29.05
2022-11-19T01:16:18.872Z,27.45
2022-11-19T01:18:48.316Z,29.15
2022-11-19T01:21:16.814Z,20.25
2022-11-19T01:23:45.296Z,23.13
2022-11-19T01:26:13.619Z,27.40
2022-11-19T01:28:41.718Z,23.88
2022-11-19T01:31:16.756Z,28.08
2022-11-19T01:33:44.385Z,35.45
2022-11-19T01:36:15.313Z,25.17
2022-11-19T01:38:43.160Z,26.65
2022-11-19T01:41:11.346Z,24.98
2022-11-19T01:43:59.074Z,29.80
2022-11-19T01:46:30.119Z,26.92
2022-11-19T01:49:15.340Z,25.10
2022-11-19T01:51:46.958Z,22.35
2022-11-19T01:54:25.537Z,30.40
2022-11-19T01:56:56.922Z,27.95
2022-11-19T01:59:26.346Z,22.40
2022-11-19T02:01:54.075Z,33.80
2022-11-19T02:04:22.461Z,19.60
2022-11-19T02:06:50.128Z,27.08
2022-11-19T02:09:18.082Z,33.25
2022-11-19T02:11:58.037Z,29.33
2022-11-19T02:15:03.116Z,31.30
2022-11-19T02:18:01.540Z,29.45
2022-11-19T02:20:58.696Z,24.92
2022-11-19T02:23:45.954Z,25.25
2022-11-19T02:26:22.757Z,27.30
2022-11-19T02:29:21.579Z,25.98
2022-11-19T02:32:07.616Z,25.88
2022-11-19T02:34:42.692Z,27.90
2022-11-19T02:37:16.352Z,25.67
2022-11-19T02:40:06.767Z,24.77
2022-11-19T02:42:43.502Z,25.13
2022-11-19T02:45:20.640Z,28.02
2022-11-19T02:47:53.615Z,27.35
2022-11-19T02:50:29.128Z,32.13
2022-11-19T02:52:57.501Z,27.83
2022-11-19T02:55:25.352Z,33.28
2022-11-19T02:58:01.932Z,30.17
2022-11-19T03:00:49.337Z,27.75
2022-11-19T03:03:38.676Z,18.33
2022-11-19T03:06:34.549Z,27.08
2022-11-19T03:09:02.803Z,31.85
2022-11-19T03:11:32.790Z,33.22
2022-11-19T03:14:39.795Z,29.02
2022-11-19T03:17:27.958Z,32.70
2022-11-19T03:20:04.120Z,33.20
2022-11-19T03:22:39.372Z,33.65
2022-11-19T03:25:13.313Z,34.35
2022-11-19T03:27:51.253Z,32.33
2022-11-19T03:30:20.383Z,35.55
2022-11-19T03:32:54.283Z,24.75
2022-11-19T03:35:28.256Z,35.38
2022-11-19T03:37:59.826Z,37.67
2022-11-19T03:40:29.309Z,31.67
2022-11-19T03:42:58.969Z,32.15
2022-11-19T03:45:30.712Z,33.25
2022-11-19T03:48:00.976Z,31.65
2022-11-19T03:50:59.309Z,33.92
2022-11-19T03:53:27.322Z,24.88
2022-11-19T03:56:02.759Z,34.40
2022-11-19T03:58:35.012Z,37.97
2022-11-19T04:01:02.487Z,36.55
2022-11-19T04:03:29.984Z,37.60
2022-11-19T04:05:57.475Z,37.50
2022-11-19T04:08:25.004Z,34.78
2022-11-19T04:10:52.519Z,27.40
2022-11-19T04:13:20.036Z,36.92
2022-11-19T04:15:47.452Z,40.58
2022-11-19T04:18:15.077Z,35.72
2022-11-19T04:20:44.845Z,30.50
2022-11-19T04:23:12.479Z,33.97
2022-11-19T04:25:41.311Z,35.60
2022-11-19T04:28:08.856Z,32.20
2022-11-19T04:30:36.433Z,38.42
2022-11-19T04:33:03.865Z,36.97
2022-11-19T04:35:31.340Z,34.45
2022-11-19T04:37:58.892Z,33.80
2022-11-19T04:40:26.419Z,30.27
2022-11-19T04:42:53.916Z,30.38
2022-11-19T04:45:21.422Z,36.75
2022-11-19T04:47:48.881Z,33.30
2022-11-19T04:50:16.502Z,30.10
2022-11-19T04:52:44.046Z,24.55
2022-11-19T04:55:11.836Z,33.75
2022-11-19T04:57:39.338Z,32.70
2022-11-19T05:00:08.234Z,31.50
2022-11-19T05:02:35.766Z,31.50
2022-11-19T05:05:03.373Z,32.03
2022-11-19T05:07:31.009Z,30.17
2022-11-19T05:09:58.617Z,33.03
2022-11-19T05:12:26.146Z,32.90
2022-11-19T05:14:53.635Z,25.67
2022-11-19T05:17:21.224Z,32.90
2022-11-19T05:19:48.703Z,34.20
2022-11-19T05:22:16.150Z,32.10
2022-11-19T05:24:43.608Z,31.48
2022-11-19T05:27:11.080Z,30.92
2022-11-19T05:29:38.600Z,32.28
2022-11-19T05:32:06.140Z,34.22
2022-11-19T05:34:33.625Z,30.75
2022-11-19T05:37:01.176Z,21.52
2022-11-19T05:39:29.036Z,32.00
2022-11-19T05:41:56.728Z,28.85
2022-11-19T05:44:24.335Z,34.38
2022-11-19T05:46:51.851Z,34.92
2022-11-19T05:49:19.588Z,33.35
2022-11-19T05:51:47.663Z,31.30
2022-11-19T05:54:15.508Z,33.67
2022-11-19T05:56:43.011Z,30.33
2022-11-19T05:59:10.467Z,34.90
2022-11-19T06:01:38.038Z,31.48
2022-11-19T06:04:05.680Z,32.60
2022-11-19T06:06:33.207Z,32.80
2022-11-19T06:09:00.670Z,35.78
2022-11-19T06:11:44.931Z,34.70
2022-11-19T06:14:12.451Z,34.15
2022-11-19T06:16:39.947Z,30.67
2022-11-19T06:19:07.689Z,37.40
2022-11-19T06:21:35.385Z,31.13
2022-11-19T06:24:02.875Z,34.58
2022-11-19T06:26:30.770Z,32.95
2022-11-19T06:28:58.320Z,33.72
2022-11-19T06:31:25.890Z,31.17
2022-11-19T06:33:54.119Z,29.88
2022-11-19T06:36:25.178Z,34.55
2022-11-19T06:38:54.903Z,30.75
2022-11-19T06:41:22.373Z,27.55
2022-11-19T06:43:49.867Z,32.20
2022-11-19T06:46:17.690Z,28.80
2022-11-19T06:48:45.237Z,31.17
2022-11-19T06:51:12.910Z,27.65
2022-11-19T06:53:40.613Z,32.35
2022-11-19T06:56:09.204Z,29.70
2022-11-19T06:58:36.955Z,27.20
2022-11-19T07:01:04.783Z,32.30
2022-11-19T07:03:32.303Z,32.03
2022-11-19T07:06:04.620Z,30.17
2022-11-19T07:08:35.622Z,30.10
2022-11-19T07:11:24.343Z,31.83
2022-11-19T07:13:59.015Z,30.25
2022-11-19T07:16:32.431Z,27.33
2022-11-19T07:19:02.086Z,34.40
2022-11-19T07:21:30.699Z,29.02
2022-11-19T07:23:59.096Z,30.92
2022-11-19T07:26:27.257Z,30.15
2022-11-19T07:28:55.217Z,26.67
2022-11-19T07:31:24.555Z,29.58
2022-11-19T07:33:52.066Z,29.92
2022-11-19T07:36:19.845Z,26.88
2022-11-19T07:38:47.412Z,27.10
2022-11-19T07:41:32.661Z,27.13
2022-11-19T07:44:00.108Z,26.60
2022-11-19T07:46:27.623Z,26.83
2022-11-19T07:48:56.698Z,29.75
2022-11-19T07:51:25.320Z,29.45
2022-11-19T07:53:53.564Z,24.73
2022-11-19T07:56:21.471Z,28.38
2022-11-19T07:58:49.064Z,25.92
2022-11-19T08:01:20.250Z,21.15
2022-11-19T08:03:54.888Z,26.73
2022-11-19T08:06:26.260Z,23.80
2022-11-19T08:08:55.818Z,32.38
2022-11-19T08:11:24.393Z,19.08
2022-11-19T08:13:52.493Z,27.85
2022-11-19T08:16:34.698Z,30.70
2022-11-19T08:19:08.197Z,28.58
2022-11-19T08:21:35.790Z,26.17
2022-11-19T08:24:03.972Z,25.27
2022-11-19T08:26:31.565Z,25.25
2022-11-19T08:28:59.139Z,25.98
2022-11-19T08:31:26.689Z,26.55
2022-11-19T08:33:54.315Z,23.10
2022-11-19T08:36:21.784Z,27.80
2022-11-19T08:38:49.292Z,27.70
2022-11-19T08:41:34.345Z,29.40
2022-11-19T08:46:30.171Z,26.17
2022-11-19T08:48:57.735Z,30.77
2022-11-19T08:51:25.370Z,25.85
2022-11-19T08:53:53.993Z,29.20
2022-11-19T08:56:22.877Z,31.35
2022-11-19T08:58:50.558Z,33.20
2022-11-19T09:01:18.845Z,29.70
2022-11-19T09:03:46.721Z,28.20
2022-11-19T09:06:14.508Z,29.90
2022-11-19T09:08:42.850Z,28.05
2022-11-19T09:11:17.783Z,25.00
2022-11-19T09:13:45.667Z,25.92
2022-11-19T09:16:14.235Z,29.20
2022-11-19T09:18:42.360Z,26.23
2022-11-19T09:21:12.097Z,30.05
2022-11-19T09:23:41.474Z,26.98
2022-11-19T09:26:17.850Z,25.75
2022-11-19T09:28:46.602Z,25.67
2022-11-19T09:31:18.159Z,23.88
2022-11-19T09:33:51.204Z,25.47
2022-11-19T09:36:19.806Z,26.98
2022-11-19T09:38:48.797Z,28.83
2022-11-19T09:41:41.397Z,25.25
2022-11-19T09:44:29.811Z,23.80
2022-11-19T09:47:18.941Z,23.02
2022-11-19T09:49:54.699Z,24.08
2022-11-19T09:52:26.663Z,24.80
2022-11-19T09:54:57.741Z,20.15
2022-11-19T09:57:34.956Z,24.08
2022-11-19T10:00:03.373Z,19.52
2022-11-19T10:02:31.018Z,16.15
2022-11-19T10:04:59.936Z,23.00
2022-11-19T10:07:58.176Z,20.83
2022-11-19T10:10:41.571Z,21.60
2022-11-19T10:13:38.697Z,19.50
2022-11-19T10:16:11.904Z,19.80
2022-11-19T10:18:42.044Z,16.13
2022-11-19T10:21:19.425Z,20.50
2022-11-19T10:23:49.745Z,16.50
2022-11-19T10:26:19.557Z,18.25
2022-11-19T10:28:54.906Z,18.63
2022-11-19T10:31:37.681Z,19.02
2022-11-19T10:34:16.701Z,18.77
2022-11-19T10:37:07.448Z,15.32
2022-11-19T10:39:40.933Z,14.50
2022-11-19T10:42:28.709Z,15.50
2022-11-19T10:45:05.858Z,16.00
2022-11-19T10:47:47.898Z,10.45
2022-11-19T10:50:33.763Z,19.85
2022-11-19T10:53:08.464Z,15.50
2022-11-19T10:55:42.027Z,18.45
2022-11-19T10:58:19.134Z,16.67
2022-11-19T11:00:48.186Z,14.35
2022-11-19T11:03:22.023Z,14.05
2022-11-19T11:06:06.468Z,17.10
2022-11-19T11:08:34.904Z,14.40
2022-11-19T11:11:02.635Z,14.10
2022-11-19T11:13:59.145Z,15.43
2022-11-19T11:16:48.822Z,15.25
2022-11-19T11:19:23.144Z,11.75
2022-11-19T11:21:55.765Z,14.13
2022-11-19T11:27:33.960Z,13.43
2022-11-19T11:30:07.986Z,9.38
2022-11-19T11:32:35.616Z,13.05
2022-11-19T11:35:08.250Z,14.60
2022-11-19T11:37:37.696Z,13.68
2022-11-19T11:40:05.681Z,11.05
2022-11-19T11:42:33.225Z,11.25
2022-11-19T11:45:02.201Z,11.88
2022-11-19T11:47:33.127Z,9.82
2022-11-19T11:50:16.907Z,16.08
2022-11-19T11:52:55.648Z,11.65
2022-11-19T11:55:26.344Z,12.18
2022-11-19T11:57:56.502Z,11.88
2022-11-19T12:00:30.072Z,9.35
2022-11-19T12:03:03.595Z,12.10
2022-11-19T12:05:54.399Z,11.88
2022-11-19T12:08:49.364Z,14.52
2022-11-19T12:11:52.627Z,9.98
2022-11-19T12:14:28.447Z,10.70
2022-11-19T12:17:17.997Z,11.07
2022-11-19T12:19:56.495Z,12.77
2022-11-19T12:22:36.430Z,13.85
2022-11-19T12:25:10.112Z,11.77
2022-11-19T12:28:02.558Z,11.45
2022-11-19T12:31:04.033Z,13.88
2022-11-19T12:33:53.160Z,7.97
2022-11-19T12:36:29.723Z,10.63
2022-11-19T12:39:39.247Z,12.48
2022-11-19T12:42:23.898Z,12.43
2022-11-19T12:45:03.542Z,12.15
2022-11-19T12:48:08.966Z,9.98
2022-11-19T12:50:55.299Z,11.38
2022-11-19T12:53:43.789Z,13.25
2022-11-19T12:56:29.577Z,13.98
2022-11-19T12:59:03.917Z,13.15
2022-11-19T13:01:37.179Z,11.57
2022-11-19T13:04:22.499Z,17.67
2022-11-19T13:07:04.717Z,12.55
2022-11-19T13:09:38.323Z,7.25
2022-11-19T13:12:09.386Z,11.52
2022-11-19T13:14:42.296Z,14.57
2022-11-19T13:17:24.048Z,10.65
2022-11-19T13:19:57.174Z,9.32
2022-11-19T13:22:28.988Z,10.70
2022-11-19T13:25:05.329Z,8.93
2022-11-19T13:27:33.513Z,11.30
2022-11-19T13:30:08.113Z,8.10
2022-11-19T13:33:00.649Z,9.63
2022-11-19T13:35:35.282Z,9.32
2022-11-19T13:38:15.562Z,11.45
2022-11-19T13:40:48.280Z,8.50
2022-11-19T13:43:37.338Z,11.35
2022-11-19T13:46:17.327Z,10.00
2022-11-19T13:49:08.611Z,7.25
2022-11-19T13:51:43.640Z,8.32
2022-11-19T13:54:28.448Z,12.10
2022-11-19T13:56:59.490Z,8.63
2022-11-19T13:59:38.650Z,8.98
2022-11-19T14:02:12.087Z,7.88
2022-11-19T14:04:48.622Z,6.32
2022-11-19T14:07:44.643Z,6.18
2022-11-19T14:10:34.040Z,7.72
2022-11-19T14:13:39.564Z,5.63
2022-11-19T14:16:42.175Z,7.55
2022-11-19T14:19:33.035Z,7.60
2022-11-19T14:22:19.454Z,8.60
2022-11-19T14:25:04.164Z,5.82
2022-11-19T14:27:33.849Z,7.70
2022-11-19T14:30:16.771Z,9.25
2022-11-19T14:32:47.706Z,6.70
2022-11-19T14:35:30.949Z,6.50
2022-11-19T14:38:13.014Z,7.68
2022-11-19T14:40:43.949Z,6.93
2022-11-19T14:43:35.037Z,8.15
2022-11-19T14:46:02.822Z,10.40
2022-11-19T14:48:32.568Z,8.57
2022-11-19T14:51:06.108Z,6.88
2022-11-19T14:53:34.360Z,8.95
2022-11-19T14:56:09.635Z,7.65
2022-11-19T14:58:37.349Z,7.03
2022-11-19T15:01:11.172Z,6.60
2022-11-19T15:03:38.958Z,8.18
2022-11-19T15:06:08.672Z,8.15
2022-11-19T15:08:57.428Z,6.90
2022-11-19T15:11:24.873Z,6.15
2022-11-19T15:14:34.339Z,6.43
2022-11-19T15:17:08.444Z,4.43
2022-11-19T15:20:13.587Z,6.93
2022-11-19T15:22:46.815Z,5.72
2022-11-19T15:25:26.626Z,6.15
2022-11-19T15:28:07.913Z,7.68
2022-11-19T15:30:59.277Z,5.95
2022-11-19T15:33:52.486Z,5.75
2022-11-19T15:36:33.816Z,5.38
2022-11-19T15:39:14.276Z,7.95
2022-11-19T15:42:00.206Z,6.88
2022-11-19T15:44:51.264Z,6.10
2022-11-19T15:47:25.290Z,6.00
2022-11-19T15:49:54.344Z,7.70
2022-11-19T15:52:30.730Z,8.10
2022-11-19T15:55:22.524Z,6.13
2022-11-19T15:57:54.980Z,6.40
2022-11-19T16:00:24.316Z,6.65
2022-11-19T16:02:53.670Z,7.43
2022-11-19T16:05:30.587Z,10.00
2022-11-19T16:07:59.864Z,7.70
2022-11-19T16:10:31.528Z,8.18
2022-11-19T16:13:19.429Z,8.10
2022-11-19T16:16:13.096Z,11.98
2022-11-19T16:18:48.124Z,9.35
2022-11-19T16:21:21.161Z,8.52
2022-11-19T16:24:06.315Z,9.38
2022-11-19T16:26:38.593Z,7.97
2022-11-19T16:29:06.446Z,8.60
2022-11-19T16:31:34.372Z,8.60
2022-11-19T16:34:01.871Z,9.18
2022-11-19T16:36:32.088Z,11.45
2022-11-19T16:38:59.949Z,9.30
2022-11-19T16:41:45.423Z,10.90
2022-11-19T16:44:21.100Z,9.18
2022-11-19T16:46:49.248Z,8.85
2022-11-19T16:49:49.369Z,10.52
2022-11-19T16:52:35.163Z,8.40
2022-11-19T16:55:05.021Z,8.25
2022-11-19T16:57:33.566Z,10.95
2022-11-19T17:00:06.185Z,10.13
2022-11-19T17:02:40.647Z,10.90
2022-11-19T17:05:16.741Z,9.63
2022-11-19T17:07:48.604Z,11.65
2022-11-19T17:10:26.157Z,9.80
2022-11-19T17:12:56.887Z,12.85
2022-11-19T17:15:42.835Z,13.70
2022-11-19T17:18:13.366Z,15.40
2022-11-19T17:20:40.866Z,14.25
2022-11-19T17:23:34.058Z,12.65
2022-11-19T17:26:07.692Z,12.40
2022-11-19T17:28:41.034Z,17.02
2022-11-19T17:31:21.038Z,11.32
2022-11-19T17:33:52.018Z,10.65
2022-11-19T17:36:20.085Z,11.88
2022-11-19T17:38:47.612Z,15.15
2022-11-19T17:41:38.176Z,15.95
2022-11-19T17:44:27.333Z,13.23
2022-11-19T17:46:54.848Z,15.35
2022-11-19T17:49:22.488Z,14.63
2022-11-19T17:51:50.760Z,15.02
2022-11-19T17:54:18.568Z,17.17
2022-11-19T17:56:46.237Z,21.08
2022-11-19T17:59:13.770Z,15.05
2022-11-19T18:01:41.477Z,17.60
2022-11-19T18:04:12.569Z,14.85
2022-11-19T18:06:40.595Z,17.60
2022-11-19T18:09:08.564Z,17.55
2022-11-19T18:11:40.189Z,17.45
2022-11-19T18:14:10.056Z,17.52
2022-11-19T18:16:41.752Z,21.63
2022-11-19T18:19:13.525Z,20.48
2022-11-19T18:21:43.641Z,16.88
2022-11-19T18:24:12.539Z,18.00
2022-11-19T18:26:40.109Z,19.27
2022-11-19T18:29:07.550Z,20.42
2022-11-19T18:31:39.256Z,15.52
2022-11-19T18:34:06.911Z,12.40
2022-11-19T18:36:34.647Z,18.38
2022-11-19T18:39:02.170Z,13.00
2022-11-19T18:41:30.280Z,17.38
2022-11-19T18:44:15.441Z,18.88
2022-11-19T18:46:42.943Z,16.98
2022-11-19T18:49:11.745Z,21.20
2022-11-19T18:51:39.604Z,22.20
2022-11-19T18:54:07.096Z,19.85
2022-11-19T18:56:34.818Z,21.73
2022-11-19T18:59:04.916Z,19.83
2022-11-19T19:01:33.129Z,15.70
2022-11-19T19:04:00.739Z,15.80
2022-11-19T19:06:30.046Z,19.13
2022-11-19T19:08:57.565Z,18.73
2022-11-19T19:11:42.363Z,15.18
2022-11-19T19:14:09.843Z,20.92
2022-11-19T19:16:37.299Z,15.23
2022-11-19T19:19:05.119Z,22.45
2022-11-19T19:21:32.986Z,17.27
2022-11-19T19:24:01.256Z,16.50
2022-11-19T19:26:29.534Z,17.38
2022-11-19T19:28:57.708Z,15.13
2022-11-19T19:31:26.092Z,15.18
2022-11-19T19:33:55.514Z,28.90
2022-11-19T19:36:24.898Z,17.27
2022-11-19T19:38:53.076Z,21.08
2022-11-19T19:41:28.823Z,14.38
2022-11-19T19:43:58.743Z,15.13
2022-11-19T19:46:28.766Z,16.70
2022-11-19T19:48:58.374Z,15.98
2022-11-19T19:51:29.510Z,14.40
2022-11-19T19:53:57.994Z,14.88
2022-11-19T19:56:29.345Z,14.07
2022-11-19T19:59:01.858Z,14.65
2022-11-19T20:04:11.997Z,15.52
2022-11-19T20:06:44.980Z,15.30
2022-11-19T20:09:12.957Z,14.68
2022-11-19T20:11:40.923Z,13.98
2022-11-19T20:14:08.894Z,14.65
2022-11-19T20:16:42.905Z,15.25
2022-11-19T20:19:15.304Z,16.02
2022-11-19T20:22:02.026Z,15.48
2022-11-19T20:24:32.839Z,20.77
2022-11-19T20:27:02.331Z,16.02
2022-11-19T20:29:31.529Z,17.60
2022-11-19T20:31:59.528Z,10.93
2022-11-19T20:34:27.470Z,14.70
2022-11-19T20:36:57.590Z,11.48
2022-11-19T20:39:26.506Z,17.15
2022-11-19T20:42:14.520Z,16.13
2022-11-19T20:44:43.318Z,14.43
2022-11-19T20:47:11.197Z,18.85
2022-11-19T20:49:40.076Z,17.23
2022-11-19T20:52:13.876Z,13.07
2022-11-19T20:54:42.972Z,17.67
2022-11-19T20:57:15.899Z,22.02
2022-11-19T20:59:43.840Z,19.38
2022-11-19T21:02:14.522Z,21.17
2022-11-19T21:04:45.308Z,20.55
2022-11-19T21:07:13.551Z,17.02
2022-11-19T21:09:42.374Z,16.00
2022-11-19T21:12:10.338Z,12.70
2022-11-19T21:14:38.410Z,19.17
2022-11-19T21:17:06.282Z,13.43
2022-11-19T21:19:34.150Z,13.23
2022-11-19T21:22:02.024Z,16.40
2022-11-19T21:24:30.510Z,11.10
2022-11-19T21:26:58.670Z,16.83
2022-11-19T21:29:26.641Z,14.40
2022-11-19T21:31:55.631Z,14.27
2022-11-19T21:34:23.272Z,17.67
2022-11-19T21:36:50.935Z,20.80
2022-11-19T21:39:20.088Z,17.65
2022-11-19T21:41:48.047Z,26.17
2022-11-19T21:44:21.122Z,18.50
2022-11-19T21:46:49.260Z,29.65
2022-11-19T21:49:16.966Z,22.10
2022-11-19T21:51:45.552Z,17.83
2022-11-19T21:54:36.000Z,19.27
2022-11-19T21:57:13.931Z,16.83
2022-11-19T22:00:46.298Z,17.92
2022-11-19T22:06:46.628Z,16.02
2022-11-19T22:09:19.296Z,21.63
2022-11-19T22:11:56.439Z,19.17
2022-11-19T22:14:24.049Z,16.27
2022-11-19T22:16:54.454Z,20.00
2022-11-19T22:19:22.580Z,18.15
2022-11-19T22:21:50.478Z,15.98
2022-11-19T22:24:18.112Z,22.02
2022-11-19T22:26:45.624Z,17.88
2022-11-19T22:29:13.162Z,17.73
2022-11-19T22:31:40.705Z,24.98
2022-11-19T22:34:08.233Z,20.40
2022-11-19T22:36:35.746Z,16.90
2022-11-19T22:39:03.275Z,18.23
2022-11-19T22:41:31.126Z,22.15
2022-11-19T22:43:59.374Z,20.38
2022-11-19T22:46:26.944Z,23.55
2022-11-19T22:48:58.914Z,23.65
2022-11-19T22:51:26.812Z,23.48
2022-11-19T22:53:55.358Z,29.25
2022-11-19T22:56:28.306Z,20.90
2022-11-19T22:58:56.671Z,23.02
2022-11-19T23:01:27.559Z,24.08
2022-11-19T23:03:56.217Z,20.20
2022-11-19T23:06:24.800Z,24.83
2022-11-19T23:08:53.098Z,23.42
2022-11-19T23:11:43.248Z,27.08
2022-11-19T23:14:12.701Z,25.20
2022-11-19T23:16:40.551Z,24.70
2022-11-19T23:19:08.983Z,27.05
2022-11-19T23:21:36.832Z,22.38
2022-11-19T23:24:05.041Z,19.33
2022-11-19T23:26:34.190Z,21.77
2022-11-19T23:29:01.858Z,25.98
2022-11-19T23:31:32.651Z,19.05
2022-11-19T23:34:00.463Z,22.40
2022-11-19T23:36:33.225Z,25.38
2022-11-19T23:39:01.003Z,24.85
2022-11-19T23:41:28.970Z,22.75
2022-11-19T23:43:57.405Z,24.80
2022-11-19T23:46:30.771Z,23.15
2022-11-19T23:48:59.785Z,22.98
2022-11-19T23:51:33.256Z,24.38
2022-11-19T23:54:02.408Z,24.80
2022-11-19T23:56:32.157Z,25.20
2022-11-19T23:59:01.895Z,23.40
